Hinmans Corners, New York
Current Conditions -  °F | °C
As of 9:53 PM on Thursday 27 Nov 2014 (Local Time) from KBGM Reporting Station
Overcast Overcast  
Wind Chill: 24°   Ceiling: 1700
Heat Index: 24°   Visibility: 10mi
Dew Point: 21°   Wind: 3mph
Humidity: 88%   Direction: 270°W
Pressure: 30.01"   Gusts: NA
Location:  42.1759°N, 75.9402°W
Report Text: KBGM 280253Z 27003KT 10SM BKN017 OVC025 M04/M06 A3001 RMK AO2 SLP179 T10441061 53002 $
Loading
Personal Weather Stations






























Interactive Weather Map New forecast layout! Learn more

10-Day Weather Forecast

Advertisements
Track Severe Weather on mobile